createdAt,value
2022-11-10T00:01:13.485Z,12.10
2022-11-10T00:03:36.192Z,12.00
2022-11-10T00:05:57.044Z,12.00
2022-11-10T00:08:18.084Z,12.00
2022-11-10T00:10:58.754Z,11.90
2022-11-10T00:13:19.799Z,11.90
2022-11-10T00:15:59.402Z,11.80
2022-11-10T00:18:20.332Z,11.80
2022-11-10T00:20:40.850Z,11.70
2022-11-10T00:23:11.879Z,11.80
2022-11-10T00:25:33.105Z,11.80
2022-11-10T00:27:54.042Z,11.80
2022-11-10T00:30:15.138Z,11.90
2022-11-10T00:32:35.772Z,11.90
2022-11-10T00:34:56.506Z,11.90
2022-11-10T00:38:07.165Z,11.90
2022-11-10T00:40:28.156Z,11.90
2022-11-10T00:42:48.943Z,12.00
2022-11-10T00:45:10.297Z,12.00
2022-11-10T00:47:31.237Z,12.00
2022-11-10T00:49:52.089Z,12.10
2022-11-10T00:52:12.823Z,12.20
2022-11-10T00:54:33.940Z,12.20
2022-11-10T00:56:54.695Z,12.30
2022-11-10T00:59:15.912Z,12.30
2022-11-10T01:01:36.816Z,12.30
2022-11-10T01:03:57.919Z,12.40
2022-11-10T01:06:20.520Z,12.40
2022-11-10T01:08:42.490Z,12.50
2022-11-10T01:11:15.183Z,12.50
2022-11-10T01:13:36.901Z,12.50
2022-11-10T01:15:57.769Z,12.50
2022-11-10T01:18:18.681Z,12.50
2022-11-10T01:20:39.677Z,12.50
2022-11-10T01:23:00.944Z,12.50
2022-11-10T01:25:22.229Z,12.50
2022-11-10T01:27:42.889Z,12.50
2022-11-10T01:30:04.681Z,12.40
2022-11-10T01:32:25.555Z,12.40
2022-11-10T01:34:46.485Z,12.40
2022-11-10T01:37:07.320Z,12.30
2022-11-10T01:39:28.301Z,12.40
2022-11-10T01:42:51.725Z,12.30
2022-11-10T01:45:24.200Z,12.40
2022-11-10T01:47:45.159Z,12.40
2022-11-10T01:50:06.736Z,12.40
2022-11-10T01:52:27.757Z,12.40
2022-11-10T01:54:49.905Z,12.40
2022-11-10T01:57:12.947Z,12.30
2022-11-10T01:59:38.971Z,12.30
2022-11-10T02:02:06.912Z,12.40
2022-11-10T02:04:27.778Z,12.40
2022-11-10T02:06:49.891Z,12.40
2022-11-10T02:09:11.262Z,12.40
2022-11-10T02:11:33.263Z,12.40
2022-11-10T02:13:54.411Z,12.40
2022-11-10T02:16:15.473Z,12.40
2022-11-10T02:18:37.996Z,12.40
2022-11-10T02:20:58.825Z,12.40
2022-11-10T02:23:34.499Z,12.40
2022-11-10T02:25:55.454Z,12.40
2022-11-10T02:28:16.082Z,12.40
2022-11-10T02:30:36.980Z,12.40
2022-11-10T02:32:57.693Z,12.40
2022-11-10T02:35:18.460Z,12.40
2022-11-10T02:37:39.250Z,12.40
2022-11-10T02:40:26.028Z,12.40
2022-11-10T02:42:46.985Z,12.30
2022-11-10T02:45:08.824Z,12.30
2022-11-10T02:47:29.622Z,12.20
2022-11-10T02:49:50.438Z,12.20
2022-11-10T02:52:11.415Z,12.20
2022-11-10T02:54:32.309Z,12.20
2022-11-10T02:56:53.240Z,12.20
2022-11-10T02:59:15.040Z,12.30
2022-11-10T03:01:35.827Z,12.30
2022-11-10T03:03:56.635Z,12.30
2022-11-10T03:06:17.455Z,12.30
2022-11-10T03:08:39.345Z,12.30
2022-11-10T03:11:00.315Z,12.20
2022-11-10T03:13:21.571Z,12.30
2022-11-10T03:15:42.708Z,12.30
2022-11-10T03:18:04.948Z,12.30
2022-11-10T03:20:27.839Z,12.30
2022-11-10T03:22:48.900Z,12.30
2022-11-10T03:25:11.504Z,12.30
2022-11-10T03:27:33.452Z,12.30
2022-11-10T03:29:54.218Z,12.30
2022-11-10T03:32:14.764Z,12.20
2022-11-10T03:34:35.523Z,12.30
2022-11-10T03:36:56.469Z,12.30
2022-11-10T03:39:17.366Z,12.30
2022-11-10T03:41:38.251Z,12.20
2022-11-10T03:43:59.010Z,12.20
2022-11-10T03:46:19.629Z,12.30
2022-11-10T03:48:40.239Z,12.30
2022-11-10T03:51:01.044Z,12.30
2022-11-10T03:53:22.150Z,12.30
2022-11-10T03:55:43.042Z,12.30
2022-11-10T03:58:04.722Z,12.30
2022-11-10T04:00:25.347Z,12.20
2022-11-10T04:02:45.795Z,12.30
2022-11-10T04:05:26.075Z,12.30
2022-11-10T04:08:05.317Z,12.30
2022-11-10T04:10:26.346Z,12.30
2022-11-10T04:13:05.749Z,12.20
2022-11-10T04:15:42.129Z,12.20
2022-11-10T04:18:21.291Z,12.20
2022-11-10T04:20:42.415Z,12.20
2022-11-10T04:23:22.076Z,12.20
2022-11-10T04:26:03.412Z,12.30
2022-11-10T04:28:24.144Z,12.20
2022-11-10T04:30:45.003Z,12.20
2022-11-10T04:33:05.888Z,12.20
2022-11-10T04:35:26.907Z,12.10
2022-11-10T04:37:47.879Z,12.00
2022-11-10T04:40:09.210Z,11.90
2022-11-10T04:42:30.374Z,11.90
2022-11-10T04:44:51.346Z,11.80
2022-11-10T04:47:12.285Z,11.70
2022-11-10T04:49:32.901Z,11.60
2022-11-10T04:51:53.997Z,11.50
2022-11-10T04:54:14.969Z,11.40
2022-11-10T04:56:35.871Z,11.40
2022-11-10T04:59:24.908Z,11.30
2022-11-10T05:01:45.519Z,11.30
2022-11-10T05:04:06.277Z,11.20
2022-11-10T05:06:27.931Z,11.10
2022-11-10T05:08:49.149Z,11.10
2022-11-10T05:11:10.900Z,11.00
2022-11-10T05:13:31.738Z,11.00
2022-11-10T05:15:53.430Z,11.00
2022-11-10T05:18:14.193Z,10.90
2022-11-10T05:20:34.952Z,10.90
2022-11-10T05:23:14.592Z,10.90
2022-11-10T05:25:38.153Z,10.90
2022-11-10T05:27:59.187Z,10.90
2022-11-10T05:30:20.148Z,10.90
2022-11-10T05:32:41.317Z,10.80
2022-11-10T05:35:02.360Z,10.80
2022-11-10T05:37:23.254Z,10.70
2022-11-10T05:39:44.378Z,10.70
2022-11-10T05:42:06.060Z,10.70
2022-11-10T05:44:27.003Z,10.70
2022-11-10T05:46:48.396Z,10.70
2022-11-10T05:49:09.591Z,10.60
2022-11-10T05:51:30.647Z,10.60
2022-11-10T05:53:51.746Z,10.50
2022-11-10T05:56:28.040Z,10.50
2022-11-10T05:58:48.548Z,10.40
2022-11-10T06:01:09.423Z,10.30
2022-11-10T06:03:30.594Z,10.30
2022-11-10T06:05:51.524Z,10.30
2022-11-10T06:08:12.284Z,10.20
2022-11-10T06:10:34.104Z,10.20
2022-11-10T06:12:58.262Z,10.10
2022-11-10T06:15:19.702Z,10.10
2022-11-10T06:17:41.409Z,10.00
2022-11-10T06:20:02.146Z,10.00
2022-11-10T06:22:23.084Z,10.00
2022-11-10T06:24:44.417Z,9.90
2022-11-10T06:27:05.339Z,9.90
2022-11-10T06:29:27.081Z,9.90
2022-11-10T06:31:47.772Z,9.90
2022-11-10T06:34:08.645Z,9.80
2022-11-10T06:36:29.516Z,9.80
2022-11-10T06:38:50.428Z,9.80
2022-11-10T06:41:11.532Z,9.80
2022-11-10T06:43:33.151Z,9.80
2022-11-10T06:45:53.958Z,9.80
2022-11-10T06:48:15.158Z,9.80
2022-11-10T06:50:35.842Z,9.80
2022-11-10T06:53:01.175Z,9.80
2022-11-10T06:55:22.192Z,9.80
2022-11-10T06:57:43.139Z,9.80
2022-11-10T07:00:04.862Z,9.80
2022-11-10T07:02:25.807Z,9.80
2022-11-10T07:04:46.806Z,9.80
2022-11-10T07:07:07.706Z,9.90
2022-11-10T07:09:28.586Z,9.90
2022-11-10T07:11:49.291Z,9.90
2022-11-10T07:14:10.509Z,10.00
2022-11-10T07:16:31.082Z,10.00
2022-11-10T07:18:52.033Z,10.00
2022-11-10T07:21:13.099Z,10.00
2022-11-10T07:23:35.075Z,10.10
2022-11-10T07:26:02.256Z,10.10
2022-11-10T07:28:28.242Z,10.20
2022-11-10T07:30:50.192Z,10.20
2022-11-10T07:33:13.502Z,10.30
2022-11-10T07:35:36.374Z,10.30
2022-11-10T07:37:59.660Z,10.40
2022-11-10T07:40:20.375Z,10.40
2022-11-10T07:42:41.387Z,10.40
2022-11-10T07:45:02.732Z,10.50
2022-11-10T07:47:24.633Z,10.50
2022-11-10T07:49:45.668Z,10.60
2022-11-10T07:52:06.402Z,10.60
2022-11-10T07:54:53.038Z,10.70
2022-11-10T07:57:13.997Z,10.70
2022-11-10T07:59:34.958Z,10.80
2022-11-10T08:01:56.068Z,10.80
2022-11-10T08:04:17.160Z,10.90
2022-11-10T08:06:37.930Z,11.00
2022-11-10T08:08:59.408Z,11.10
2022-11-10T08:11:20.647Z,11.30
2022-11-10T08:13:42.597Z,11.30
2022-11-10T08:16:05.519Z,11.40
2022-11-10T08:18:29.606Z,11.50
2022-11-10T08:20:53.717Z,11.50
2022-11-10T08:23:15.391Z,11.60
2022-11-10T08:25:37.458Z,11.60
2022-11-10T08:28:00.383Z,11.70
2022-11-10T08:30:21.487Z,11.80
2022-11-10T08:32:42.735Z,11.90
2022-11-10T08:35:03.850Z,12.00
2022-11-10T08:37:26.961Z,12.20
2022-11-10T08:39:47.972Z,12.20
2022-11-10T08:42:09.613Z,12.30
2022-11-10T08:44:30.236Z,12.40
2022-11-10T08:46:51.401Z,12.50
2022-11-10T08:49:12.223Z,12.60
2022-11-10T08:51:38.720Z,12.60
2022-11-10T08:54:02.344Z,12.70
2022-11-10T08:56:23.083Z,12.60
2022-11-10T08:58:50.375Z,12.60
2022-11-10T09:01:14.155Z,12.70
2022-11-10T09:03:37.489Z,12.70
2022-11-10T09:05:58.953Z,12.70
2022-11-10T09:08:20.432Z,12.80
2022-11-10T09:10:44.533Z,12.80
2022-11-10T09:13:06.008Z,12.90
2022-11-10T09:15:27.617Z,12.90
2022-11-10T09:17:48.488Z,12.90
2022-11-10T09:20:12.652Z,13.00
2022-11-10T09:22:35.485Z,13.00
2022-11-10T09:25:23.340Z,13.00
2022-11-10T09:27:44.226Z,13.10
2022-11-10T09:30:07.545Z,13.20
2022-11-10T09:32:29.355Z,13.20
2022-11-10T09:34:52.980Z,13.30
2022-11-10T09:37:14.219Z,13.30
2022-11-10T09:39:35.099Z,13.30
2022-11-10T09:42:04.032Z,13.40
2022-11-10T09:44:38.542Z,13.40
2022-11-10T09:47:12.384Z,13.50
2022-11-10T09:49:41.955Z,13.50
2022-11-10T09:52:04.485Z,13.50
2022-11-10T09:54:44.067Z,13.60
2022-11-10T09:57:08.802Z,13.60
2022-11-10T09:59:32.479Z,13.70
2022-11-10T10:02:03.103Z,13.70
2022-11-10T10:05:09.935Z,13.70
2022-11-10T10:07:48.696Z,13.70
2022-11-10T10:10:31.413Z,13.60
2022-11-10T10:13:26.194Z,13.60
2022-11-10T10:16:16.712Z,13.70
2022-11-10T10:19:00.664Z,13.70
2022-11-10T10:21:32.363Z,13.70
2022-11-10T10:24:21.052Z,13.70
2022-11-10T10:26:51.392Z,13.70
2022-11-10T10:29:37.670Z,13.80
2022-11-10T10:32:01.891Z,13.80
2022-11-10T10:34:27.544Z,13.80
2022-11-10T10:36:49.066Z,13.80
2022-11-10T10:39:17.327Z,13.80
2022-11-10T10:41:38.694Z,13.90
2022-11-10T10:44:02.319Z,13.90
2022-11-10T10:46:30.274Z,13.90
2022-11-10T10:49:28.231Z,13.90
2022-11-10T10:51:53.064Z,14.00
2022-11-10T10:54:34.223Z,14.00
2022-11-10T10:57:18.149Z,14.10
2022-11-10T10:59:38.881Z,14.10
2022-11-10T11:01:59.799Z,14.20
2022-11-10T11:05:12.330Z,14.30
2022-11-10T11:07:33.506Z,14.40
2022-11-10T11:09:54.473Z,14.40
2022-11-10T11:12:23.194Z,14.40
2022-11-10T11:14:46.199Z,14.40
2022-11-10T11:17:19.902Z,14.40
2022-11-10T11:19:41.292Z,14.40
2022-11-10T11:22:40.019Z,14.40
2022-11-10T11:25:32.179Z,14.40
2022-11-10T11:28:25.995Z,14.40
2022-11-10T11:31:05.287Z,14.50
2022-11-10T11:33:34.021Z,14.60
2022-11-10T11:36:13.614Z,14.60
2022-11-10T11:38:58.511Z,14.70
2022-11-10T11:41:29.334Z,14.80
2022-11-10T11:43:56.555Z,14.90
2022-11-10T11:46:35.958Z,15.00
2022-11-10T11:49:26.654Z,15.10
2022-11-10T11:52:18.590Z,15.10
2022-11-10T11:55:16.429Z,15.10
2022-11-10T11:58:06.209Z,15.10
2022-11-10T12:00:31.341Z,15.20
2022-11-10T12:03:17.238Z,15.30
2022-11-10T12:05:52.782Z,15.40
2022-11-10T12:08:35.703Z,15.50
2022-11-10T12:11:20.980Z,15.60
2022-11-10T12:13:47.712Z,15.60
2022-11-10T12:16:25.881Z,15.60
2022-11-10T12:18:55.556Z,15.60
2022-11-10T12:21:33.136Z,15.70
2022-11-10T12:24:20.568Z,15.70
2022-11-10T12:26:56.955Z,15.80
2022-11-10T12:29:39.047Z,15.80
2022-11-10T12:32:10.741Z,15.90
2022-11-10T12:34:44.123Z,15.90
2022-11-10T12:37:07.777Z,15.80
2022-11-10T12:39:52.398Z,15.70
2022-11-10T12:42:18.859Z,15.60
2022-11-10T12:44:57.474Z,15.50
2022-11-10T12:47:22.891Z,15.50
2022-11-10T12:50:09.930Z,15.50
2022-11-10T12:52:40.782Z,15.50
2022-11-10T12:55:01.915Z,15.50
2022-11-10T12:57:28.940Z,15.50
2022-11-10T12:59:54.348Z,15.60
2022-11-10T13:02:26.266Z,15.60
2022-11-10T13:05:14.451Z,15.70
2022-11-10T13:07:35.199Z,15.70
2022-11-10T13:10:21.420Z,15.60
2022-11-10T13:13:04.375Z,15.60
2022-11-10T13:15:37.977Z,15.60
2022-11-10T13:17:58.934Z,15.60
2022-11-10T13:21:23.627Z,15.60
2022-11-10T13:23:48.695Z,15.60
2022-11-10T13:26:11.890Z,15.50
2022-11-10T13:28:48.016Z,15.50
2022-11-10T13:31:27.351Z,15.50
2022-11-10T13:34:09.552Z,15.50
2022-11-10T13:36:42.289Z,15.40
2022-11-10T13:39:19.584Z,15.30
2022-11-10T13:41:55.947Z,15.20
2022-11-10T13:44:25.523Z,15.10
2022-11-10T13:47:07.772Z,15.00
2022-11-10T13:49:48.068Z,14.80
2022-11-10T13:52:25.322Z,14.80
2022-11-10T13:55:14.694Z,14.80
2022-11-10T13:57:54.356Z,14.70
2022-11-10T14:00:16.978Z,14.70
2022-11-10T14:02:47.689Z,14.60
2022-11-10T14:05:47.138Z,14.50
2022-11-10T14:08:14.395Z,14.50
2022-11-10T14:10:45.200Z,14.40
2022-11-10T14:14:09.851Z,14.30
2022-11-10T14:16:32.976Z,14.20
2022-11-10T14:19:21.346Z,14.10
2022-11-10T14:22:09.150Z,14.10
2022-11-10T14:24:42.992Z,14.10
2022-11-10T14:27:13.198Z,14.10
2022-11-10T14:29:38.520Z,14.00
2022-11-10T14:32:03.028Z,14.00
2022-11-10T14:34:24.876Z,13.90
2022-11-10T14:36:54.454Z,13.90
2022-11-10T14:39:17.006Z,13.90
2022-11-10T14:41:47.602Z,13.90
2022-11-10T14:44:15.440Z,14.00
2022-11-10T14:46:38.446Z,14.00
2022-11-10T14:49:10.828Z,14.00
2022-11-10T14:51:34.867Z,14.00
2022-11-10T14:53:57.080Z,14.00
2022-11-10T14:56:27.405Z,14.00
2022-11-10T14:58:49.832Z,13.90
2022-11-10T15:01:33.955Z,13.90
2022-11-10T15:03:56.756Z,13.90
2022-11-10T15:06:18.216Z,13.80
2022-11-10T15:08:40.546Z,13.80
2022-11-10T15:11:02.154Z,13.70
2022-11-10T15:13:37.249Z,13.70
2022-11-10T15:16:20.686Z,13.60
2022-11-10T15:18:41.264Z,13.50
2022-11-10T15:21:05.161Z,13.40
2022-11-10T15:23:38.085Z,13.30
2022-11-10T15:25:59.377Z,13.30
2022-11-10T15:28:26.914Z,13.20
2022-11-10T15:30:57.526Z,13.10
2022-11-10T15:33:25.441Z,13.00
2022-11-10T15:35:46.545Z,13.00
2022-11-10T15:38:28.764Z,12.90
2022-11-10T15:40:51.917Z,12.80
2022-11-10T15:43:22.727Z,12.70
2022-11-10T15:45:46.398Z,12.50
2022-11-10T15:48:12.878Z,12.50
2022-11-10T15:50:34.112Z,12.40
2022-11-10T15:52:55.027Z,12.30
2022-11-10T15:55:20.697Z,12.20
2022-11-10T15:57:41.691Z,12.10
2022-11-10T16:00:03.165Z,12.00
2022-11-10T16:02:26.152Z,11.90
2022-11-10T16:04:48.941Z,11.80
2022-11-10T16:07:10.071Z,11.80
2022-11-10T16:09:30.966Z,11.70
2022-11-10T16:11:51.959Z,11.60
2022-11-10T16:14:16.724Z,11.60
2022-11-10T16:17:04.372Z,11.50
2022-11-10T16:19:24.834Z,11.50
2022-11-10T16:21:49.593Z,11.40
2022-11-10T16:24:10.410Z,11.30
2022-11-10T16:26:33.206Z,11.30
2022-11-10T16:28:56.367Z,11.20
2022-11-10T16:31:23.898Z,11.20
2022-11-10T16:33:45.609Z,11.20
2022-11-10T16:36:16.098Z,11.10
2022-11-10T16:38:37.022Z,11.10
2022-11-10T16:41:02.865Z,11.00
2022-11-10T16:43:24.785Z,10.90
2022-11-10T16:45:47.663Z,10.90
2022-11-10T16:48:08.708Z,10.80
2022-11-10T16:50:37.940Z,10.80
2022-11-10T16:53:25.531Z,10.80
2022-11-10T16:55:47.455Z,10.80
2022-11-10T16:58:08.439Z,10.70
2022-11-10T17:00:29.468Z,10.70
2022-11-10T17:02:56.895Z,10.60
2022-11-10T17:05:18.128Z,10.60
2022-11-10T17:07:39.362Z,10.50
2022-11-10T17:10:01.602Z,10.50
2022-11-10T17:12:22.422Z,10.50
2022-11-10T17:14:42.922Z,10.40
2022-11-10T17:17:03.723Z,10.40
2022-11-10T17:19:26.428Z,10.40
2022-11-10T17:21:48.593Z,10.40
2022-11-10T17:24:13.920Z,10.30
2022-11-10T17:26:34.705Z,10.30
2022-11-10T17:29:01.774Z,10.20
2022-11-10T17:31:22.656Z,10.20
2022-11-10T17:33:43.630Z,10.20
2022-11-10T17:36:05.961Z,10.20
2022-11-10T17:38:29.489Z,10.20
2022-11-10T17:40:51.382Z,10.20
2022-11-10T17:43:14.293Z,10.20
2022-11-10T17:45:34.960Z,10.20
2022-11-10T17:47:55.909Z,10.30
2022-11-10T17:50:19.451Z,10.40
2022-11-10T17:52:40.591Z,10.60
2022-11-10T17:55:01.337Z,10.70
2022-11-10T17:57:22.019Z,10.80
2022-11-10T17:59:42.906Z,11.00
2022-11-10T18:02:11.490Z,11.10
2022-11-10T18:04:32.029Z,11.20
2022-11-10T18:06:52.744Z,11.20
2022-11-10T18:09:13.799Z,11.30
2022-11-10T18:11:34.661Z,11.30
2022-11-10T18:13:55.533Z,11.40
2022-11-10T18:16:17.568Z,11.40
2022-11-10T18:18:38.772Z,11.50
2022-11-10T18:20:59.584Z,11.50
2022-11-10T18:23:20.756Z,11.60
2022-11-10T18:25:42.689Z,11.70
2022-11-10T18:28:03.566Z,11.70
2022-11-10T18:30:24.292Z,11.70
2022-11-10T18:32:45.219Z,11.80
2022-11-10T18:35:06.304Z,11.80
2022-11-10T18:37:33.004Z,11.80
2022-11-10T18:39:56.303Z,11.80
2022-11-10T18:42:17.302Z,11.80
2022-11-10T18:44:39.000Z,11.80
2022-11-10T18:47:00.111Z,11.80
2022-11-10T18:49:21.456Z,11.80
2022-11-10T18:51:42.724Z,11.80
2022-11-10T18:54:06.075Z,11.90
2022-11-10T18:56:27.335Z,11.90
2022-11-10T18:58:55.289Z,11.90
2022-11-10T19:01:18.233Z,12.00
2022-11-10T19:03:38.889Z,12.00
2022-11-10T19:06:00.107Z,12.00
2022-11-10T19:08:20.890Z,12.00
2022-11-10T19:10:42.542Z,12.00
2022-11-10T19:13:05.619Z,12.00
2022-11-10T19:15:27.132Z,12.10
2022-11-10T19:17:47.839Z,12.10
2022-11-10T19:20:10.256Z,12.00
2022-11-10T19:22:31.148Z,12.10
2022-11-10T19:25:07.458Z,12.10
2022-11-10T19:27:29.271Z,12.00
2022-11-10T19:29:50.142Z,12.10
2022-11-10T19:32:11.360Z,12.10
2022-11-10T19:34:32.153Z,12.10
2022-11-10T19:36:54.347Z,12.10
2022-11-10T19:39:15.232Z,12.10
2022-11-10T19:41:36.888Z,12.10
2022-11-10T19:44:03.139Z,12.10
2022-11-10T19:46:27.629Z,12.10
2022-11-10T19:48:48.165Z,12.10
2022-11-10T19:51:12.880Z,12.10
2022-11-10T19:53:45.286Z,12.10
2022-11-10T19:56:12.808Z,12.10
2022-11-10T19:58:39.091Z,12.10
2022-11-10T20:01:05.611Z,12.00
2022-11-10T20:03:29.491Z,11.90
2022-11-10T20:05:59.093Z,11.90
2022-11-10T20:08:24.961Z,11.80
2022-11-10T20:10:46.629Z,11.70
2022-11-10T20:13:09.477Z,11.60
2022-11-10T20:15:30.433Z,11.50
2022-11-10T20:17:51.277Z,11.40
2022-11-10T20:20:12.243Z,11.30
2022-11-10T20:22:33.748Z,11.30
2022-11-10T20:24:54.467Z,11.10
2022-11-10T20:28:06.924Z,11.00
2022-11-10T20:30:27.876Z,11.00
2022-11-10T20:32:48.703Z,10.90
2022-11-10T20:35:09.640Z,10.80
2022-11-10T20:37:33.993Z,10.70
2022-11-10T20:39:58.993Z,10.60
2022-11-10T20:42:33.412Z,10.60
2022-11-10T20:44:54.499Z,10.50
2022-11-10T20:47:15.123Z,10.50
2022-11-10T20:49:36.065Z,10.40
2022-11-10T20:51:59.839Z,10.40
2022-11-10T20:54:20.952Z,10.40
2022-11-10T20:57:07.786Z,10.30
2022-11-10T20:59:28.840Z,10.20
2022-11-10T21:01:49.548Z,10.20
2022-11-10T21:04:11.051Z,10.10
2022-11-10T21:06:31.998Z,10.10
2022-11-10T21:08:53.539Z,10.10
2022-11-10T21:11:34.446Z,10.00
2022-11-10T21:13:55.373Z,10.00
2022-11-10T21:16:32.729Z,10.00
2022-11-10T21:18:57.487Z,9.90
2022-11-10T21:21:26.372Z,9.90
2022-11-10T21:23:47.176Z,9.80
2022-11-10T21:26:08.600Z,9.80
2022-11-10T21:28:29.433Z,9.70
2022-11-10T21:30:50.717Z,9.70
2022-11-10T21:33:11.828Z,9.60
2022-11-10T21:35:38.211Z,9.60
2022-11-10T21:37:59.127Z,9.60
2022-11-10T21:40:22.321Z,9.60
2022-11-10T21:42:43.396Z,9.50
2022-11-10T21:45:04.911Z,9.50
2022-11-10T21:47:26.146Z,9.50
2022-11-10T21:49:46.807Z,9.40
2022-11-10T21:52:07.747Z,9.40
2022-11-10T21:54:28.734Z,9.30
2022-11-10T21:56:50.220Z,9.30
2022-11-10T21:59:11.814Z,9.30
2022-11-10T22:01:32.562Z,9.20
2022-11-10T22:03:53.297Z,9.20
2022-11-10T22:06:16.678Z,9.20
2022-11-10T22:08:38.404Z,9.20
2022-11-10T22:11:18.297Z,9.20
2022-11-10T22:13:59.830Z,9.20
2022-11-10T22:16:42.351Z,9.10
2022-11-10T22:19:05.762Z,9.10
2022-11-10T22:21:26.375Z,9.10
2022-11-10T22:24:05.740Z,9.10
2022-11-10T22:26:29.874Z,9.10
2022-11-10T22:28:50.365Z,9.10
2022-11-10T22:31:12.325Z,9.10
2022-11-10T22:33:36.205Z,9.10
2022-11-10T22:35:58.098Z,9.10
2022-11-10T22:38:18.777Z,9.10
2022-11-10T22:40:58.146Z,9.10
2022-11-10T22:43:37.749Z,9.10
2022-11-10T22:45:58.846Z,9.10
2022-11-10T22:48:28.648Z,9.10
2022-11-10T22:50:56.522Z,9.10
2022-11-10T22:53:17.458Z,9.10
2022-11-10T22:55:38.214Z,9.10
2022-11-10T22:57:59.023Z,9.10
2022-11-10T23:00:20.274Z,9.10
2022-11-10T23:02:41.035Z,9.00
2022-11-10T23:05:01.948Z,9.00
2022-11-10T23:07:22.832Z,9.00
2022-11-10T23:09:43.846Z,8.90
2022-11-10T23:12:12.018Z,8.90
2022-11-10T23:14:32.876Z,8.90
2022-11-10T23:16:53.480Z,8.90
2022-11-10T23:19:14.284Z,8.80
2022-11-10T23:21:35.031Z,8.80
2022-11-10T23:24:55.725Z,8.80
2022-11-10T23:27:18.227Z,8.70
2022-11-10T23:29:39.022Z,8.70
2022-11-10T23:31:59.881Z,8.70
2022-11-10T23:34:20.524Z,8.70
2022-11-10T23:36:42.001Z,8.60
2022-11-10T23:39:31.523Z,8.60
2022-11-10T23:41:52.081Z,8.70
2022-11-10T23:44:12.978Z,8.70
2022-11-10T23:46:58.507Z,8.70
2022-11-10T23:49:19.238Z,8.70
2022-11-10T23:51:39.760Z,8.70
2022-11-10T23:54:00.693Z,8.70
2022-11-10T23:56:21.450Z,8.70
2022-11-10T23:58:42.675Z,8.70
